Station: Alva Beach  

  Atmospheric Gas Attenuation - ITU Rec 676-11   ----------------- dB/100km -----------------
Date Time Temp RH % AH g/m3 Dew Point Wind Direction Speed kph Gust kph Barometer mB Rainfall Since 9am 24GHz 47GHz 76GHz 122GHz 134GHz 241GHz
05/05 07:10 19.4 97 16.18 18.9 11 13 1015.3 0 35.5 37.3 69.4 183.2 197.2 684.0
05/05 07:00 19.4 97 16.18 18.9 9 13 1015.1 0 35.5 37.3 69.3 183.2 197.2 683.9
05/05 06:50 19.4 97 16.18 18.9 9 11 1015.1 0 35.5 37.3 69.3 183.2 197.2 683.9
05/05 06:40 19.4 97 16.18 18.9 7 11 1014.8 0 35.5 37.3 69.3 183.2 197.1 683.7
05/05 06:30 19.2 97 15.99 18.7 7 11 1014.8 0 35.1 37.1 68.6 181.2 194.7 675.3
05/05 06:20 19.1 97 15.9 18.6 9 9 1014.6 0 34.9 36.9 68.3 180.3 193.5 671.2
05/05 06:10 19 97 15.81 18.5 7 9 1014.6 0 34.7 36.8 67.9 179.4 192.4 667.2
05/05 06:00 18.9 97 15.71 18.4 7 9 1014.5 0 34.5 36.6 67.5 178.4 191.1 662.7
05/05 05:50 19 97 15.81 18.5 7 9 1014.5 0 34.7 36.8 67.9 179.4 192.4 667.2
05/05 05:40 19.1 97 15.9 18.6 7 7 1014.4 0 34.9 36.9 68.2 180.3 193.5 671.1
05/05 05:30 19.1 97 15.9 18.6 7 11 1014.1 0 34.9 36.9 68.2 180.2 193.5 671.0
05/05 05:20 19.2 96 15.83 18.5 9 9 1014 0 34.7 36.7 67.8 179.1 192.1 666.3
05/05 05:10 19.2 96 15.83 18.5 9 13 1013.9 0 34.7 36.7 67.8 179.1 192.1 666.2
05/05 05:00 19.2 96 15.83 18.5 9 13 1014 0 34.7 36.7 67.8 179.1 192.1 666.3
05/05 04:50 19.2 96 15.83 18.5 9 11 1013.9 0 34.7 36.7 67.8 179.1 192.1 666.2
05/05 04:40 19.2 96 15.83 18.5 9 9 1013.8 0 34.7 36.7 67.8 179.1 192.1 666.2
05/05 04:30 19.2 96 15.83 18.5 9 13 1013.8 0 34.7 36.7 67.8 179.1 192.1 666.2
05/05 04:20 19.2 96 15.83 18.5 9 11 1013.8 0 34.7 36.7 67.8 179.1 192.1 666.2
05/05 04:10 19.3 96 15.92 18.6 9 13 1013.9 0 34.9 36.8 68.1 180.0 193.2 670.2
05/05 04:00 19.4 96 16.02 18.7 9 13 1013.9 0 35.1 37.0 68.5 181.0 194.5 674.7
05/05 03:50 19.5 96 16.11 18.8 9 11 1013.9 0 35.3 37.1 68.8 181.9 195.7 678.6
05/05 03:40 19.6 95 16.04 18.8 9 11 1014 0 35.2 36.9 68.4 180.8 194.3 674.0
05/05 03:30 19.8 95 16.23 19 9 11 1014 0 35.5 37.2 69.1 182.7 196.7 682.4
05/05 03:20 19.9 95 16.32 19.1 6 9 1014.1 0 35.7 37.3 69.5 183.6 197.9 686.4
05/05 03:10 20 95 16.42 19.2 9 11 1014.2 0 35.9 37.5 69.9 184.7 199.2 691.0
05/05 03:00 20.2 94 16.43 19.2 6 9 1014.1 0 35.9 37.4 69.7 184.3 198.8 689.6
05/05 02:50 20.4 93 16.45 19.2 7 9 1014 0 36.0 37.4 69.6 184.0 198.5 688.8
05/05 02:40 20.6 92 16.46 19.3 7 9 1014.1 0 36.0 37.3 69.5 183.7 198.2 687.6
05/05 02:30 21.2 90 16.68 19.5 7 9 1014 0 36.4 37.4 70.0 185.0 200.0 693.8
05/05 02:20 22.1 88 17.18 20 6 7 1014 0 37.4 38.0 71.5 189.0 205.2 712.2
05/05 02:10 22.9 87 17.78 20.6 7 13 1014.1 0 38.6 38.8 73.6 194.5 212.2 736.7
05/05 02:00 23.1 87 17.98 20.8 11 19 1014.3 0 39.0 39.0 74.3 196.5 214.8 745.6
05/05 01:50 23.1 88 18.19 21 11 17 1014.4 0 39.4 39.5 75.3 199.2 218.0 757.0
05/05 01:40 23.2 89 18.5 21.3 11 15 1014.5 0 40.1 40.0 76.7 202.9 222.6 772.9
05/05 01:30 23.2 88 18.29 21.1 7 17 1014.6 0 39.6 39.6 75.7 200.3 219.3 761.5
05/05 01:20 23.3 88 18.4 21.2 11 13 1014.7 0 39.8 39.8 76.2 201.4 220.8 766.5
05/05 01:10 23.4 88 18.5 21.3 11 13 1014.8 0 40.1 39.9 76.5 202.4 222.0 771.0
05/05 01:00 23.7 87 18.61 21.4 9 22 1014.8 0 40.3 40.0 76.8 203.0 222.9 773.9
05/05 00:50 23.7 85 18.18 21 13 19 1014.8 0 39.3 39.2 74.7 197.6 216.2 750.7
05/05 00:40 23.8 85 18.28 21.1 17 19 1015 0 39.5 39.3 75.1 198.6 217.5 755.2
05/05 00:30 23.8 84 18.07 20.9 15 24 1015 0 39.1 38.9 74.1 196.0 214.2 743.9
05/05 00:20 24 84 18.27 21.1 13 17 1015.1 0 39.5 39.2 74.9 198.0 216.8 752.7
05/05 00:10 23.9 83 17.96 20.8 13 19 1015.3 0 38.8 38.7 73.5 194.4 212.3 737.2
05/05 00:00 23.9 83 17.96 20.8 15 24 1015.3 0 38.8 38.7 73.5 194.4 212.3 737.2
04/05 23:50 24.1 81 17.72 20.6 15 19 1015.4 0 38.3 38.1 72.2 190.9 208.1 722.6
04/05 23:40 24.2 80 17.6 20.5 19 24 1015.4 0 38.1 37.9 71.6 189.2 206.0 715.4
04/05 23:30 24.3 82 18.15 21 15 26 1015.6 0 39.2 38.9 74.0 195.8 214.1 743.6
04/05 23:20 24.2 82 18.04 20.9 17 20 1015.5 0 39.0 38.7 73.6 194.6 212.7 738.7
04/05 23:10 24.3 82 18.15 21 17 20 1015.6 0 39.2 38.9 74.0 195.8 214.1 743.6
04/05 23:00 24.2 83 18.26 21.1 17 24 1015.7 0 39.5 39.1 74.7 197.4 216.1 750.5
04/05 22:50 24.2 84 18.48 21.3 17 20 1015.7 0 39.9 39.5 75.7 200.2 219.5 762.3
04/05 22:40 24.4 85 18.92 21.7 19 26 1015.7 0 40.8 40.3 77.6 205.2 225.7 783.9
04/05 22:30 24.5 85 19.02 21.8 15 24 1015.7 0 41.0 40.4 78.0 206.2 227.0 788.3
04/05 22:20 24.6 85 19.13 21.9 17 22 1015.8 0 41.3 40.6 78.4 207.3 228.4 793.3
04/05 22:10 24.6 84 18.91 21.7 15 19 1015.8 0 40.8 40.2 77.3 204.5 225.0 781.4
04/05 22:00 24.7 84 19.01 21.8 17 24 1015.9 0 41.0 40.3 77.7 205.6 226.2 785.8
04/05 21:50 24.7 84 19.01 21.8 17 22 1015.9 0 41.0 40.3 77.7 205.6 226.2 785.8
04/05 21:40 24.8 84 19.12 21.9 17 19 1015.8 0 41.2 40.5 78.1 206.7 227.6 790.6
04/05 21:30 24.7 84 19.01 21.8 15 20 1015.8 0 41.0 40.3 77.7 205.5 226.2 785.7
04/05 21:20 24.7 85 19.24 22 11 17 1015.7 0 41.5 40.8 78.8 208.4 229.8 798.2
04/05 21:10 24.7 84 19.01 21.8 13 19 1015.7 0 41.0 40.3 77.7 205.5 226.2 785.7
04/05 21:00 24.7 84 19.01 21.8 13 24 1015.7 0 41.0 40.3 77.7 205.5 226.2 785.7
04/05 20:50 24.7 83 18.79 21.6 15 20 1015.6 0 40.5 39.9 76.7 202.7 222.8 773.8
04/05 20:40 24.8 82 18.66 21.5 15 17 1015.4 0 40.2 39.6 75.9 200.8 220.5 765.7
04/05 20:30 24.8 82 18.66 21.5 15 20 1015.4 0 40.2 39.6 75.9 200.8 220.5 765.7
04/05 20:20 24.9 82 18.77 21.6 15 19 1015.4 0 40.5 39.7 76.3 201.9 221.9 770.6
04/05 20:10 24.9 81 18.54 21.4 15 20 1015.3 0 40.0 39.3 75.3 199.0 218.3 758.2
04/05 20:00 25 81 18.65 21.5 13 22 1015.2 0 40.2 39.5 75.7 200.1 219.7 763.0
04/05 19:50 25.1 81 18.75 21.6 13 17 1015.1 0 40.4 39.6 76.0 201.1 220.9 767.3
04/05 19:40 25.1 81 18.75 21.6 17 20 1015 0 40.4 39.6 76.0 201.1 220.9 767.2
04/05 19:30 25 81 18.65 21.5 13 22 1014.9 0 40.2 39.5 75.6 200.1 219.6 762.9
04/05 19:20 25 81 18.65 21.5 15 19 1014.9 0 40.2 39.5 75.6 200.1 219.6 762.9
04/05 19:10 25 81 18.65 21.5 15 17 1014.8 0 40.2 39.4 75.6 200.1 219.6 762.8
04/05 19:00 25.1 80 18.52 21.4 15 22 1014.7 0 39.9 39.2 74.9 198.2 217.3 754.8
04/05 18:50 25.1 81 18.75 21.6 13 15 1014.6 0 40.4 39.6 76.0 201.0 220.8 767.0
04/05 18:40 25.1 81 18.75 21.6 15 17 1014.5 0 40.4 39.6 76.0 201.0 220.8 767.0
04/05 18:30 24.9 81 18.54 21.4 15 24 1014.3 0 40.0 39.3 75.2 198.9 218.2 757.7
04/05 18:20 24.8 81 18.44 21.3 15 19 1014.1 0 39.8 39.1 74.8 197.9 216.9 753.3
04/05 18:10 24.8 81 18.44 21.3 19 24 1014 0 39.8 39.1 74.8 197.8 216.9 753.2
04/05 18:00 24.9 80 18.31 21.2 17 24 1013.9 0 39.5 38.8 74.1 195.9 214.6 745.3
04/05 17:50 24.9 81 18.54 21.4 19 22 1013.9 0 40.0 39.2 75.2 198.8 218.1 757.5
04/05 17:40 24.8 81 18.44 21.3 19 22 1013.8 0 39.8 39.1 74.8 197.8 216.8 753.1
04/05 17:30 25 80 18.42 21.3 17 26 1013.8 0 39.7 39.0 74.5 197.0 216.0 750.1
04/05 17:20 25.1 79 18.29 21.2 19 28 1013.6 0 39.4 38.7 73.8 195.1 213.7 742.1
04/05 17:10 25.3 78 18.26 21.2 17 20 1013.6 0 39.4 38.5 73.5 194.3 212.6 738.6
04/05 17:00 25.5 77 18.23 21.2 17 28 1013.6 0 39.3 38.4 73.1 193.4 211.6 735.1
04/05 16:50 25.6 76 18.09 21.1 19 26 1013.5 0 39.0 38.1 72.4 191.4 209.2 726.8
04/05 16:40 25.8 76 18.3 21.2 15 19 1013.4 0 39.4 38.4 73.1 193.4 211.8 735.7
04/05 16:30 26 75 18.26 21.2 19 28 1013.3 0 39.3 38.2 72.8 192.4 210.6 731.7
04/05 16:20 26.1 73 17.87 20.9 22 28 1013.2 0 38.5 37.4 70.9 187.5 204.5 710.5
04/05 16:10 26.4 73 18.17 21.2 19 24 1013.2 0 39.1 37.8 72.0 190.3 208.2 723.1
04/05 16:00 26.4 74 18.42 21.4 20 32 1013.2 0 39.6 38.3 73.1 193.4 211.9 736.1
04/05 15:50 26.6 72 18.12 21.1 22 30 1013 0 38.9 37.7 71.5 189.2 206.8 718.6
04/05 15:40 26.5 73 18.27 21.3 19 28 1013.1 0 39.3 38.0 72.3 191.3 209.4 727.3
04/05 15:30 26.8 74 18.84 21.8 19 30 1013.1 0 40.4 38.9 74.6 197.4 217.0 754.0
04/05 15:20 26.5 74 18.52 21.5 22 28 1013.1 0 39.8 38.4 73.5 194.3 213.1 740.2
04/05 15:10 27 75 19.3 22.2 15 19 1012.9 0 41.4 39.6 76.5 202.5 223.3 775.9
04/05 15:00 27 74 19.05 22 20 32 1013 0 40.9 39.2 75.4 199.5 219.6 762.9
04/05 14:50 27.1 73 18.89 21.8 19 26 1012.9 0 40.5 38.8 74.6 197.2 216.9 753.5
04/05 14:40 26.9 72 18.43 21.6 17 20 1013 0 39.6 38.1 72.7 192.2 210.6 731.7

Last Refresh: 05-May-2026 06:45:41

Bureau of Meteorology